Time;durP1;ratioP1;P1;durP2;ratioP2;P2;SDS_P1;SDS_P2;PMS_P1;PMS_P2;Temp;Humidity;BMP_temperature;BMP_pressure;BME280_temperature;BME280_humidity;BME280_pressure;Samples;Min_cycle;Max_cycle;Signal;HPM_P1;HPM_P2
2022/01/03 00:00:14;;;;;;;7.05;3.70;;;12.60;96.90;;;;;;4965766;28;20229;-68
2022/01/03 00:02:41;;;;;;;5.90;3.58;;;12.60;96.90;;;;;;4962251;28;20030;-68
2022/01/03 00:05:07;;;;;;;6.82;4.07;;;12.60;97.00;;;;;;4964305;28;20035;-68
2022/01/03 00:07:37;;;;;;;6.57;3.72;;;12.60;97.00;;;;;;4958883;28;20387;-67
2022/01/03 00:10:04;;;;;;;6.75;3.75;;;12.60;97.00;;;;;;4971502;28;20431;-67
2022/01/03 00:12:30;;;;;;;4.63;3.28;;;12.50;97.00;;;;;;4973055;28;20030;-68
2022/01/03 00:14:56;;;;;;;5.93;2.92;;;12.50;97.10;;;;;;4972236;28;20108;-68
2022/01/03 00:17:22;;;;;;;5.95;3.30;;;12.50;97.10;;;;;;4971648;28;20525;-68
2022/01/03 00:19:48;;;;;;;5.28;3.30;;;12.50;97.10;;;;;;4968159;28;20058;-67
2022/01/03 00:22:16;;;;;;;5.15;3.40;;;12.60;97.10;;;;;;4965073;28;20034;-68
2022/01/03 00:24:48;;;;;;;10.88;3.40;;;12.50;97.10;;;;;;4969004;28;20031;-68
2022/01/03 00:27:19;;;;;;;6.75;3.65;;;12.60;97.30;;;;;;4957355;28;20171;-68
2022/01/03 00:29:47;;;;;;;13.65;3.40;;;12.60;97.10;;;;;;4972049;28;20023;-67
2022/01/03 00:32:14;;;;;;;6.07;4.10;;;12.60;97.10;;;;;;4965744;28;20082;-68
2022/01/03 00:34:40;;;;;;;5.32;3.47;;;12.50;97.10;;;;;;4957559;28;20033;-68
2022/01/03 00:37:07;;;;;;;5.38;2.83;;;12.60;97.10;;;;;;4970582;28;20117;-68
2022/01/03 00:39:33;;;;;;;4.03;2.75;;;12.50;97.00;;;;;;4978338;28;20027;-68
2022/01/03 00:41:58;;;;;;;7.45;3.72;;;12.60;97.10;;;;;;4972839;28;20031;-68
2022/01/03 00:44:25;;;;;;;7.03;3.70;;;12.60;97.10;;;;;;4971162;28;20034;-68
2022/01/03 00:46:53;;;;;;;4.85;2.80;;;12.60;97.10;;;;;;4972346;28;20053;-68
2022/01/03 00:49:19;;;;;;;5.00;2.80;;;12.60;97.10;;;;;;4962926;28;20099;-68
2022/01/03 00:51:44;;;;;;;5.50;2.80;;;12.60;97.10;;;;;;4970206;28;20034;-67
2022/01/03 00:54:10;;;;;;;5.20;2.83;;;12.60;97.10;;;;;;4972066;28;20023;-67
2022/01/03 00:56:38;;;;;;;7.10;3.00;;;12.60;97.10;;;;;;4977297;28;20382;-68
2022/01/03 00:59:11;;;;;;;8.68;2.85;;;12.60;97.20;;;;;;4991864;28;20144;-67
2022/01/03 01:01:43;;;;;;;4.53;3.05;;;12.70;97.20;;;;;;4971994;28;20050;-67
2022/01/03 01:04:09;;;;;;;5.53;3.00;;;12.70;97.30;;;;;;4956623;28;20496;-67
2022/01/03 01:06:37;;;;;;;4.03;2.40;;;12.70;97.40;;;;;;4972368;28;20041;-68
2022/01/03 01:09:05;;;;;;;7.00;2.90;;;12.70;97.40;;;;;;4969272;28;20035;-67
2022/01/03 01:11:31;;;;;;;5.82;2.58;;;12.70;97.50;;;;;;4972352;28;20030;-67
2022/01/03 01:13:58;;;;;;;5.13;2.33;;;12.70;97.60;;;;;;4972719;28;20498;-68
2022/01/03 01:16:24;;;;;;;5.70;2.60;;;12.60;97.70;;;;;;4971833;28;20446;-68
2022/01/03 01:18:50;;;;;;;4.78;2.55;;;12.60;97.90;;;;;;4970364;28;20027;-68
2022/01/03 01:21:17;;;;;;;4.05;2.90;;;12.60;98.00;;;;;;4961322;28;20050;-68
2022/01/03 01:23:43;;;;;;;4.80;2.38;;;12.50;98.10;;;;;;4972582;28;20034;-69
2022/01/03 01:28:54;;;;;;;6.35;2.90;;;12.50;98.30;;;;;;4969970;28;20502;-67
2022/01/03 01:31:22;;;;;;;4.93;2.75;;;12.50;98.30;;;;;;4961303;28;20484;-68
2022/01/03 01:33:52;;;;;;;3.58;2.47;;;12.50;98.40;;;;;;4969853;28;20352;-68
2022/01/03 01:36:18;;;;;;;5.07;2.30;;;12.50;98.50;;;;;;4971119;28;20514;-67
2022/01/03 01:38:50;;;;;;;4.40;2.60;;;12.50;98.60;;;;;;4968368;28;20038;-68
2022/01/03 01:41:18;;;;;;;4.38;2.70;;;12.50;98.70;;;;;;4969946;28;20038;-66
2022/01/03 01:43:46;;;;;;;5.82;2.80;;;12.50;98.70;;;;;;4961309;28;20495;-67
2022/01/03 01:46:17;;;;;;;5.55;2.55;;;12.40;98.80;;;;;;4970120;28;20031;-67
2022/01/03 01:48:45;;;;;;;4.43;2.40;;;12.40;98.80;;;;;;4972406;28;20038;-67
2022/01/03 01:51:14;;;;;;;4.75;2.47;;;12.40;98.90;;;;;;4971220;28;20150;-68
2022/01/03 01:53:42;;;;;;;3.42;2.28;;;12.40;98.90;;;;;;4956108;28;20039;-67
2022/01/03 01:56:23;;;;;;;3.88;2.35;;;12.40;99.00;;;;;;4966753;28;20042;-68
2022/01/03 01:59:11;;;;;;;4.90;2.42;;;12.40;99.00;;;;;;4971394;28;20046;-68
2022/01/03 02:02:00;;;;;;;4.70;2.30;;;12.30;99.10;;;;;;4952492;28;20110;-68
2022/01/03 02:04:58;;;;;;;5.30;2.47;;;12.20;99.10;;;;;;4960905;28;20035;-68
2022/01/03 02:08:05;;;;;;;3.28;2.20;;;12.20;99.10;;;;;;4960664;28;20035;-68
2022/01/03 02:10:58;;;;;;;5.18;2.40;;;12.20;99.20;;;;;;4970197;28;20506;-68
2022/01/03 02:13:25;;;;;;;6.18;2.53;;;12.20;99.20;;;;;;4974999;28;20039;-68
2022/01/03 02:16:03;;;;;;;3.08;2.00;;;12.20;99.30;;;;;;4961208;28;20039;-68
2022/01/03 02:18:29;;;;;;;5.82;2.38;;;12.20;99.30;;;;;;4956601;28;20408;-68
2022/01/03 02:20:55;;;;;;;3.38;1.75;;;12.20;99.30;;;;;;4972269;28;20039;-68
2022/01/03 02:23:20;;;;;;;3.33;1.70;;;12.20;99.40;;;;;;4970612;28;20030;-68
2022/01/03 02:25:46;;;;;;;3.22;1.70;;;12.10;99.40;;;;;;4968185;28;20027;-68
2022/01/03 02:28:12;;;;;;;3.53;2.15;;;12.10;99.40;;;;;;4975330;28;20030;-68
2022/01/03 02:30:38;;;;;;;3.33;1.80;;;12.10;99.40;;;;;;4967667;28;20510;-68
2022/01/03 02:33:04;;;;;;;4.07;2.00;;;12.10;99.40;;;;;;4961155;28;20045;-67
2022/01/03 02:35:38;;;;;;;2.50;1.73;;;12.10;99.50;;;;;;4968697;28;20133;-67
2022/01/03 02:38:04;;;;;;;3.80;1.67;;;12.10;99.50;;;;;;4963750;28;20158;-68
2022/01/03 02:40:29;;;;;;;3.50;1.95;;;12.10;99.60;;;;;;4966807;28;20121;-68
2022/01/03 02:42:55;;;;;;;2.63;1.65;;;12.10;99.60;;;;;;4974767;28;20074;-68
2022/01/03 02:45:23;;;;;;;4.13;1.48;;;12.10;99.60;;;;;;4969878;28;20027;-68
2022/01/03 02:47:52;;;;;;;3.15;1.40;;;12.10;99.60;;;;;;4972398;28;20034;-68
2022/01/03 02:50:19;;;;;;;2.58;1.60;;;12.00;99.70;;;;;;4974702;28;20031;-68
2022/01/03 02:52:45;;;;;;;5.28;2.22;;;12.00;99.70;;;;;;4969280;28;20083;-68
2022/01/03 02:55:11;;;;;;;2.28;1.40;;;12.00;99.70;;;;;;4955738;29;20043;-68
2022/01/03 02:57:43;;;;;;;5.82;1.70;;;12.00;99.70;;;;;;4970373;28;20490;-68
2022/01/03 03:00:12;;;;;;;2.42;1.30;;;12.00;99.70;;;;;;4974106;28;20078;-67
2022/01/03 03:02:37;;;;;;;3.80;1.52;;;12.00;99.70;;;;;;4972480;28;20448;-67
2022/01/03 03:05:05;;;;;;;2.65;1.60;;;12.00;99.70;;;;;;4974100;28;20190;-68
2022/01/03 03:07:32;;;;;;;3.67;1.10;;;12.00;99.70;;;;;;4971291;28;20030;-68
2022/01/03 03:09:58;;;;;;;2.17;1.17;;;12.00;99.70;;;;;;4974255;28;20551;-68
2022/01/03 03:12:24;;;;;;;1.77;1.10;;;12.00;99.60;;;;;;4972629;28;20101;-68
2022/01/03 03:14:50;;;;;;;1.80;1.13;;;11.90;99.60;;;;;;4972930;28;20026;-69
2022/01/03 03:17:19;;;;;;;2.70;1.20;;;11.90;99.60;;;;;;4975843;28;20027;-68
2022/01/03 03:19:55;;;;;;;1.05;0.90;;;12.00;99.60;;;;;;4969093;28;20030;-68
2022/01/03 03:22:22;;;;;;;1.73;1.00;;;11.90;99.60;;;;;;4961024;28;20505;-68
2022/01/03 03:24:49;;;;;;;1.77;1.25;;;11.90;99.50;;;;;;4983683;28;20035;-68
2022/01/03 03:27:15;;;;;;;2.05;1.50;;;11.90;99.50;;;;;;4961548;28;20118;-68
2022/01/03 03:29:50;;;;;;;1.52;1.02;;;11.90;99.50;;;;;;4955062;28;20031;-68
2022/01/03 03:32:16;;;;;;;1.40;1.10;;;11.90;99.50;;;;;;4965410;28;20089;-68
2022/01/03 03:34:43;;;;;;;1.55;1.10;;;11.90;99.40;;;;;;4964166;28;20126;-68
2022/01/03 03:37:09;;;;;;;2.55;1.20;;;11.80;99.40;;;;;;4965179;28;20031;-68
2022/01/03 03:39:36;;;;;;;2.00;1.33;;;11.80;99.50;;;;;;4974315;28;20360;-68
2022/01/03 03:42:03;;;;;;;3.55;1.63;;;11.90;99.50;;;;;;4968807;28;20031;-68
2022/01/03 03:44:28;;;;;;;2.47;1.52;;;11.80;99.50;;;;;;4972987;28;20063;-68
2022/01/03 03:46:54;;;;;;;2.33;1.35;;;11.80;99.60;;;;;;4971851;28;20058;-68
2022/01/03 03:49:20;;;;;;;2.00;1.30;;;11.80;99.60;;;;;;4974171;28;20027;-68
2022/01/03 03:51:45;;;;;;;1.95;1.33;;;11.80;99.70;;;;;;4971031;28;20011;-68
2022/01/03 03:54:11;;;;;;;2.92;1.33;;;11.80;99.70;;;;;;4973617;28;20386;-68
2022/01/03 03:56:36;;;;;;;2.53;1.30;;;11.80;99.70;;;;;;4971219;28;20022;-68
2022/01/03 03:59:02;;;;;;;2.13;1.23;;;11.80;99.70;;;;;;4973729;28;20034;-68
2022/01/03 04:01:27;;;;;;;2.65;1.23;;;11.80;99.80;;;;;;4969587;28;20137;-68
2022/01/03 04:03:53;;;;;;;4.40;1.30;;;11.70;99.80;;;;;;4971270;28;20069;-68
2022/01/03 04:06:19;;;;;;;2.05;1.23;;;11.70;99.80;;;;;;4972489;28;20045;-68
2022/01/03 04:08:45;;;;;;;2.08;1.45;;;11.70;99.80;;;;;;4971945;28;20490;-68
2022/01/03 04:11:13;;;;;;;2.80;1.45;;;11.70;99.90;;;;;;4972399;28;20031;-68
2022/01/03 04:13:39;;;;;;;2.00;1.40;;;11.70;99.90;;;;;;4972318;28;20035;-68
2022/01/03 04:16:05;;;;;;;3.42;1.75;;;11.60;99.90;;;;;;4971476;28;20097;-68
2022/01/03 04:18:30;;;;;;;4.72;1.73;;;11.60;99.90;;;;;;4972756;28;20027;-68
2022/01/03 04:20:56;;;;;;;1.92;1.48;;;11.60;99.90;;;;;;4970756;28;20041;-68
2022/01/03 04:23:21;;;;;;;3.55;1.38;;;11.60;99.90;;;;;;4972778;28;20386;-68
2022/01/03 04:25:47;;;;;;;2.22;1.23;;;11.50;99.90;;;;;;4971871;28;20023;-68
2022/01/03 04:28:13;;;;;;;5.93;1.52;;;11.60;99.90;;;;;;4973409;28;20378;-68
2022/01/03 04:30:38;;;;;;;4.13;1.50;;;11.50;99.90;;;;;;4970583;28;20081;-68
2022/01/03 04:33:03;;;;;;;2.47;1.15;;;11.60;99.90;;;;;;4972363;28;20090;-68
2022/01/03 04:35:29;;;;;;;3.40;1.27;;;11.50;99.90;;;;;;4971499;28;20062;-68
2022/01/03 04:37:55;;;;;;;1.95;1.05;;;11.50;99.90;;;;;;4971523;28;20101;-68
2022/01/03 04:40:20;;;;;;;1.95;1.40;;;11.50;99.90;;;;;;4972749;28;20114;-68
2022/01/03 04:42:45;;;;;;;4.50;1.33;;;11.40;99.90;;;;;;4971601;28;20042;-69
2022/01/03 04:45:11;;;;;;;3.78;1.67;;;11.40;99.90;;;;;;4971969;28;20026;-69
2022/01/03 04:47:36;;;;;;;1.45;0.90;;;11.40;99.80;;;;;;4972042;28;20111;-69
2022/01/03 04:50:03;;;;;;;2.97;0.90;;;11.30;99.70;;;;;;4972771;28;20022;-69
2022/01/03 04:52:28;;;;;;;1.60;0.70;;;11.30;99.60;;;;;;4969471;28;20023;-69
2022/01/03 04:54:54;;;;;;;1.65;0.70;;;11.30;99.60;;;;;;4970438;28;20049;-70
2022/01/03 04:57:19;;;;;;;1.27;1.10;;;11.30;99.50;;;;;;4968316;28;20121;-69
2022/01/03 04:59:45;;;;;;;1.10;0.77;;;11.20;99.50;;;;;;4961468;28;20105;-69
2022/01/03 05:02:11;;;;;;;3.60;0.52;;;11.10;99.40;;;;;;4966231;28;20047;-69
2022/01/03 05:04:37;;;;;;;1.10;0.60;;;11.10;99.20;;;;;;4967300;28;20038;-69
2022/01/03 05:07:02;;;;;;;0.45;0.45;;;11.10;98.90;;;;;;4969048;28;20031;-69
2022/01/03 05:09:28;;;;;;;0.40;0.40;;;11.00;99.00;;;;;;4972669;28;20310;-68
2022/01/03 05:11:55;;;;;;;1.23;0.55;;;11.00;98.70;;;;;;4969387;28;20486;-68
2022/01/03 05:14:20;;;;;;;3.05;0.70;;;11.00;98.90;;;;;;4964331;28;20114;-68
2022/01/03 05:16:46;;;;;;;2.10;0.60;;;11.00;98.80;;;;;;4953709;28;20129;-68
2022/01/03 05:19:12;;;;;;;2.67;0.70;;;10.90;98.70;;;;;;4963933;28;20114;-68
2022/01/03 05:21:37;;;;;;;1.08;0.73;;;10.90;98.70;;;;;;4971767;28;20046;-68
2022/01/03 05:24:03;;;;;;;0.90;0.55;;;10.90;98.70;;;;;;4971577;28;20027;-68
2022/01/03 05:26:28;;;;;;;0.95;0.65;;;10.90;98.60;;;;;;4971389;28;20263;-67
2022/01/03 05:28:54;;;;;;;0.50;0.50;;;10.90;98.60;;;;;;4971867;28;20049;-68
2022/01/03 05:31:20;;;;;;;1.20;0.60;;;10.90;98.50;;;;;;4970591;28;20027;-68
2022/01/03 05:33:45;;;;;;;0.55;0.47;;;10.80;98.40;;;;;;4961803;28;20277;-68
2022/01/03 05:36:11;;;;;;;0.77;0.55;;;10.80;98.50;;;;;;4969233;28;20109;-68
2022/01/03 05:38:36;;;;;;;1.75;0.63;;;10.80;98.60;;;;;;4971974;28;20023;-70
2022/01/03 05:41:02;;;;;;;1.48;0.60;;;10.80;98.60;;;;;;4968983;28;20039;-67
2022/01/03 05:43:27;;;;;;;1.27;0.75;;;10.70;98.60;;;;;;4955478;28;20047;-68
2022/01/03 05:45:53;;;;;;;1.13;0.80;;;10.70;98.80;;;;;;4969494;28;20217;-69
2022/01/03 05:48:18;;;;;;;0.55;0.52;;;10.70;98.90;;;;;;4975696;28;20026;-68
2022/01/03 05:50:44;;;;;;;1.70;0.80;;;10.70;98.90;;;;;;4974032;28;20066;-69
2022/01/03 05:53:09;;;;;;;0.85;0.63;;;10.70;99.10;;;;;;4976078;28;20031;-69
2022/01/03 05:55:35;;;;;;;0.70;0.70;;;10.70;99.20;;;;;;4974404;28;20046;-69
2022/01/03 05:58:00;;;;;;;0.80;0.70;;;10.70;99.40;;;;;;4974881;28;20027;-68
2022/01/03 06:00:27;;;;;;;4.25;0.88;;;10.60;99.60;;;;;;4961948;28;20047;-69
2022/01/03 06:02:56;;;;;;;3.20;0.93;;;10.60;99.80;;;;;;4973799;28;20070;-69
2022/01/03 06:06:32;;;;;;;2.08;1.10;;;10.50;99.90;;;;;;4975674;28;20022;-69
2022/01/03 06:08:17;;;;;;;1.92;1.10;;;10.50;99.90;;;;;;4971214;28;20038;-69
2022/01/03 06:10:42;;;;;;;3.03;0.93;;;10.50;99.90;;;;;;4974935;28;20493;-69
2022/01/03 06:13:08;;;;;;;1.73;1.00;;;10.50;99.90;;;;;;4974429;28;20034;-69
2022/01/03 06:15:39;;;;;;;2.67;1.00;;;10.50;99.90;;;;;;4975084;28;20031;-69
2022/01/03 06:18:10;;;;;;;2.72;1.02;;;10.50;99.90;;;;;;4964270;28;20070;-69
2022/01/03 06:20:37;;;;;;;3.70;1.13;;;10.60;99.90;;;;;;4955886;28;20114;-69
2022/01/03 06:23:03;;;;;;;3.33;1.38;;;10.60;99.90;;;;;;4974505;28;20074;-70
2022/01/03 06:25:28;;;;;;;2.33;1.08;;;10.50;99.90;;;;;;4975284;28;20031;-70
2022/01/03 06:27:53;;;;;;;3.90;1.25;;;10.60;99.90;;;;;;4973804;28;20042;-69
2022/01/03 06:30:19;;;;;;;4.30;1.40;;;10.60;99.90;;;;;;4973767;28;20031;-69
2022/01/03 06:32:44;;;;;;;5.75;1.30;;;10.60;99.90;;;;;;4973505;28;20030;-69
2022/01/03 06:35:10;;;;;;;2.55;1.10;;;10.60;99.90;;;;;;4974882;28;20034;-69
2022/01/03 06:37:36;;;;;;;2.90;1.50;;;10.60;99.90;;;;;;4969952;28;20059;-69
2022/01/03 06:40:02;;;;;;;6.93;1.35;;;10.70;99.90;;;;;;4967858;28;20364;-69
2022/01/03 06:42:28;;;;;;;2.40;1.30;;;10.70;99.90;;;;;;4974057;28;20561;-69
2022/01/03 06:44:53;;;;;;;2.22;1.38;;;10.70;99.90;;;;;;4969504;28;20122;-69
2022/01/03 06:47:19;;;;;;;3.63;1.42;;;10.80;99.90;;;;;;4968768;28;20047;-69
2022/01/03 06:49:45;;;;;;;4.95;1.67;;;10.80;99.90;;;;;;4974713;28;20117;-68
2022/01/03 06:52:11;;;;;;;6.85;1.65;;;10.80;99.90;;;;;;4973685;28;20594;-70
2022/01/03 06:54:37;;;;;;;2.10;1.10;;;10.90;99.90;;;;;;4974777;28;20102;-68
2022/01/03 06:57:02;;;;;;;7.32;1.50;;;10.90;99.90;;;;;;4973368;28;20042;-68
2022/01/03 06:59:28;;;;;;;3.95;1.40;;;10.90;99.90;;;;;;4969560;28;20146;-68
2022/01/03 07:01:53;;;;;;;4.95;1.98;;;10.90;99.90;;;;;;4965945;28;20078;-68
2022/01/03 07:04:19;;;;;;;5.97;1.50;;;10.90;99.90;;;;;;4960487;28;20031;-68
2022/01/03 07:06:44;;;;;;;6.85;1.70;;;10.90;99.90;;;;;;4962745;28;20500;-68
2022/01/03 07:09:10;;;;;;;6.53;1.90;;;11.00;99.90;;;;;;4974106;28;20030;-68
2022/01/03 07:11:35;;;;;;;5.95;1.70;;;11.00;99.90;;;;;;4968490;28;20024;-68
2022/01/03 07:19:29;;;;;;;8.57;2.28;;;11.10;99.90;;;;;;4968444;28;20046;-68
2022/01/03 07:21:55;;;;;;;7.40;2.15;;;11.10;99.90;;;;;;4971646;28;20039;-68
2022/01/03 07:24:21;;;;;;;7.20;2.40;;;11.10;99.90;;;;;;4972135;28;20097;-68
2022/01/03 07:26:46;;;;;;;5.22;2.22;;;11.10;99.90;;;;;;4968362;28;20181;-68
2022/01/03 07:29:12;;;;;;;7.38;2.65;;;11.10;99.90;;;;;;4960161;28;20050;-68
2022/01/03 07:31:37;;;;;;;6.53;2.20;;;11.20;99.90;;;;;;4972339;28;20379;-68
2022/01/03 07:34:03;;;;;;;7.05;1.83;;;11.20;99.90;;;;;;4972148;28;20042;-68
2022/01/03 07:36:30;;;;;;;6.18;1.77;;;11.10;99.90;;;;;;4972883;28;20118;-68
2022/01/03 07:38:56;;;;;;;7.40;2.53;;;11.10;99.90;;;;;;4973885;28;20113;-66
2022/01/03 07:41:21;;;;;;;7.70;1.80;;;11.20;99.90;;;;;;4972647;28;20027;-64
2022/01/03 07:43:47;;;;;;;7.10;2.13;;;11.20;99.90;;;;;;4970176;28;20030;-65
2022/01/03 07:46:13;;;;;;;6.65;1.90;;;11.20;99.90;;;;;;4966044;28;20023;-64
2022/01/03 07:48:38;;;;;;;7.80;2.08;;;11.20;99.90;;;;;;4970896;28;20038;-66
2022/01/03 07:51:04;;;;;;;3.15;1.40;;;11.30;99.90;;;;;;4961714;28;20109;-66
2022/01/03 07:53:29;;;;;;;4.60;1.90;;;11.30;99.90;;;;;;4964662;28;20031;-67
2022/01/03 07:55:56;;;;;;;5.85;1.73;;;11.30;99.90;;;;;;4958364;28;20078;-66
2022/01/03 07:58:22;;;;;;;3.63;1.70;;;11.30;99.90;;;;;;4954199;28;20023;-65
2022/01/03 08:00:47;;;;;;;6.05;2.60;;;11.30;99.90;;;;;;4955626;28;20392;-66
2022/01/03 08:03:13;;;;;;;5.05;1.80;;;11.30;99.90;;;;;;4967115;28;20031;-66
2022/01/03 08:05:38;;;;;;;8.32;2.15;;;11.30;99.90;;;;;;4954177;28;20048;-66
2022/01/03 08:08:08;;;;;;;4.22;1.92;;;11.30;99.90;;;;;;4967129;28;20074;-66
2022/01/03 08:10:36;;;;;;;6.03;1.85;;;11.40;99.90;;;;;;4953505;28;20039;-66
2022/01/03 08:13:01;;;;;;;11.00;3.17;;;11.40;99.90;;;;;;4961841;28;20062;-66
2022/01/03 08:15:27;;;;;;;6.80;2.70;;;11.40;99.90;;;;;;4957133;28;20035;-66
2022/01/03 08:17:52;;;;;;;7.53;1.88;;;11.40;99.90;;;;;;4967323;28;20142;-66
2022/01/03 08:20:19;;;;;;;5.78;2.85;;;11.40;99.80;;;;;;4967449;28;20030;-66
2022/01/03 08:22:45;;;;;;;9.20;2.17;;;11.40;99.90;;;;;;4957580;28;20036;-64
2022/01/03 08:25:10;;;;;;;8.07;2.20;;;11.50;99.80;;;;;;4966480;28;20049;-66
2022/01/03 08:27:36;;;;;;;7.97;2.65;;;11.50;99.80;;;;;;4969663;28;20034;-66
2022/01/03 08:30:02;;;;;;;7.03;2.22;;;11.50;99.80;;;;;;4964616;28;20054;-66
2022/01/03 08:32:29;;;;;;;8.40;2.28;;;11.50;99.80;;;;;;4957866;28;20039;-66
2022/01/03 08:34:54;;;;;;;6.65;2.33;;;11.50;99.80;;;;;;4964247;28;20023;-65
2022/01/03 08:37:20;;;;;;;7.80;2.35;;;11.50;99.80;;;;;;4966558;28;20045;-65
2022/01/03 08:39:46;;;;;;;6.45;2.45;;;11.40;99.80;;;;;;4971080;28;20015;-66
2022/01/03 08:42:11;;;;;;;8.38;2.30;;;11.50;99.80;;;;;;4971152;28;20030;-65
2022/01/03 08:44:37;;;;;;;6.97;2.10;;;11.50;99.70;;;;;;4969378;28;20027;-65
2022/01/03 08:47:02;;;;;;;10.50;2.17;;;11.50;99.70;;;;;;4967860;28;20038;-65
2022/01/03 08:49:28;;;;;;;5.82;2.15;;;11.50;99.70;;;;;;4966879;28;20034;-65
2022/01/03 08:51:54;;;;;;;8.38;2.47;;;11.50;99.70;;;;;;4971102;28;20046;-67
2022/01/03 08:54:19;;;;;;;9.38;2.45;;;11.50;99.70;;;;;;4972426;28;20106;-66
2022/01/03 08:56:44;;;;;;;13.27;3.42;;;11.50;99.70;;;;;;4960145;28;20047;-66
2022/01/03 08:59:10;;;;;;;9.07;2.55;;;11.60;99.70;;;;;;4963636;28;20033;-65
2022/01/03 09:01:36;;;;;;;9.20;3.05;;;11.60;99.60;;;;;;4963137;28;20102;-66
2022/01/03 09:04:01;;;;;;;11.35;3.22;;;11.60;99.60;;;;;;4963504;28;20027;-66
2022/01/03 09:06:27;;;;;;;10.40;2.30;;;11.70;99.50;;;;;;4969487;28;20122;-66
2022/01/03 09:08:53;;;;;;;9.90;2.58;;;11.70;99.40;;;;;;4970659;28;20394;-66
2022/01/03 09:11:19;;;;;;;8.45;2.20;;;11.70;99.30;;;;;;4968533;28;20106;-66
2022/01/03 09:13:44;;;;;;;5.95;2.10;;;11.70;99.20;;;;;;4959879;28;20023;-66
2022/01/03 09:16:11;;;;;;;8.55;2.40;;;11.80;99.10;;;;;;4970342;28;20057;-66
2022/01/03 09:18:38;;;;;;;9.43;2.72;;;11.80;99.00;;;;;;4965733;28;20027;-65
2022/01/03 09:21:04;;;;;;;11.68;2.72;;;11.90;99.00;;;;;;4970611;28;20035;-66
2022/01/03 09:23:35;;;;;;;7.70;2.65;;;11.90;98.90;;;;;;4977656;28;20042;-66
2022/01/03 09:28:56;;;;;;;7.53;2.93;;;11.90;98.80;;;;;;4974002;28;20031;-67
2022/01/03 09:31:31;;;;;;;9.45;2.78;;;11.90;98.80;;;;;;4965520;28;20919;-67
2022/01/03 09:34:00;;;;;;;10.48;2.47;;;12.00;98.70;;;;;;4972508;28;20027;-66
2022/01/03 09:36:27;;;;;;;9.75;2.92;;;12.00;98.70;;;;;;4973363;28;20188;-67
2022/01/03 09:38:52;;;;;;;6.20;2.15;;;12.00;98.60;;;;;;4969912;28;20118;-67
2022/01/03 09:41:21;;;;;;;11.10;2.78;;;12.10;98.60;;;;;;4966161;28;20117;-66
2022/01/03 09:43:50;;;;;;;9.38;2.50;;;12.10;98.50;;;;;;4978339;28;20026;-66
2022/01/03 09:46:37;;;;;;;11.65;3.45;;;12.10;98.40;;;;;;4975671;28;20033;-67
2022/01/03 09:49:05;;;;;;;6.72;2.92;;;12.10;98.40;;;;;;4968687;28;20041;-66
2022/01/03 09:51:32;;;;;;;7.95;2.65;;;12.10;98.30;;;;;;4963525;28;20038;-67
2022/01/03 09:54:02;;;;;;;6.80;2.22;;;12.10;98.20;;;;;;4965877;28;20082;-66
2022/01/03 09:56:30;;;;;;;8.55;2.63;;;12.10;98.10;;;;;;4970233;28;20114;-66
2022/01/03 09:58:57;;;;;;;7.13;2.83;;;12.20;98.00;;;;;;4964752;28;20031;-66
2022/01/03 10:01:24;;;;;;;7.63;2.95;;;12.20;98.00;;;;;;4976869;28;20057;-66
2022/01/03 10:03:49;;;;;;;8.52;2.25;;;12.20;97.90;;;;;;4976116;28;20037;-66
2022/01/03 10:06:17;;;;;;;9.95;2.60;;;12.20;97.80;;;;;;4975168;28;20482;-66
2022/01/03 10:08:43;;;;;;;10.85;2.65;;;12.20;97.80;;;;;;4965363;28;20118;-66
2022/01/03 10:11:09;;;;;;;9.02;2.83;;;12.20;97.80;;;;;;4978570;28;20035;-67
2022/01/03 10:13:34;;;;;;;15.13;4.13;;;12.30;97.80;;;;;;4978685;28;20019;-67
2022/01/03 10:16:00;;;;;;;6.88;3.15;;;12.30;97.80;;;;;;4977848;28;20043;-66
2022/01/03 10:18:26;;;;;;;6.47;2.60;;;12.30;97.70;;;;;;4976711;28;20548;-65
2022/01/03 10:20:54;;;;;;;7.13;2.70;;;12.30;97.70;;;;;;4963750;28;20094;-66
2022/01/03 10:23:19;;;;;;;9.68;3.10;;;12.40;97.70;;;;;;4976048;28;20031;-66
2022/01/03 10:25:49;;;;;;;10.02;3.08;;;12.30;97.60;;;;;;4976144;28;20359;-66
2022/01/03 10:28:26;;;;;;;11.13;2.75;;;12.30;97.60;;;;;;4977240;28;20106;-67
2022/01/03 10:30:52;;;;;;;11.60;3.45;;;12.40;97.60;;;;;;4976993;28;20066;-67
2022/01/03 10:33:23;;;;;;;8.63;2.90;;;12.40;97.60;;;;;;4973976;28;20141;-67
2022/01/03 10:35:56;;;;;;;9.35;2.90;;;12.50;97.70;;;;;;4970704;28;20089;-67
2022/01/03 10:38:43;;;;;;;10.55;3.28;;;12.50;97.60;;;;;;4974421;28;20035;-67
2022/01/03 10:41:14;;;;;;;12.55;2.90;;;12.50;97.60;;;;;;4972105;28;20498;-67
2022/01/03 10:43:41;;;;;;;10.10;4.07;;;12.60;97.50;;;;;;4974290;28;20031;-67
2022/01/03 10:46:23;;;;;;;10.70;3.47;;;12.60;97.40;;;;;;4965075;28;20502;-66
2022/01/03 10:48:49;;;;;;;7.15;2.95;;;12.60;97.40;;;;;;4965452;28;20112;-66
2022/01/03 10:51:23;;;;;;;9.35;3.25;;;12.70;97.40;;;;;;4968779;28;20031;-67
2022/01/03 10:53:51;;;;;;;8.10;2.65;;;12.70;97.30;;;;;;4970321;28;20038;-67
2022/01/03 10:56:35;;;;;;;11.32;3.50;;;12.80;97.20;;;;;;4972987;28;20042;-67
2022/01/03 10:59:23;;;;;;;13.77;3.72;;;12.90;97.20;;;;;;4956045;28;20031;-66
2022/01/03 11:02:05;;;;;;;8.70;3.22;;;12.90;97.20;;;;;;4963204;28;20086;-67
2022/01/03 11:04:55;;;;;;;9.70;3.63;;;13.00;97.00;;;;;;4970645;28;20027;-67
2022/01/03 11:13:11;;;;;;;13.63;3.60;;;13.10;96.60;;;;;;4966918;28;20046;-68
2022/01/03 11:15:57;;;;;;;11.48;3.90;;;13.10;96.80;;;;;;4957383;28;20054;-68
2022/01/03 11:18:24;;;;;;;9.27;3.60;;;13.10;96.70;;;;;;4972198;28;20382;-68
2022/01/03 11:21:16;;;;;;;9.98;3.63;;;13.10;96.40;;;;;;4959936;28;20094;-68
2022/01/03 11:23:42;;;;;;;7.78;3.28;;;13.20;96.30;;;;;;4972126;28;20033;-70
2022/01/03 11:26:14;;;;;;;10.15;3.20;;;13.20;96.10;;;;;;4958325;28;20030;-67
2022/01/03 11:28:40;;;;;;;12.05;4.10;;;13.20;95.90;;;;;;4972842;28;20371;-67
2022/01/03 11:31:09;;;;;;;13.75;3.90;;;13.20;95.80;;;;;;4962467;28;20081;-67
2022/01/03 11:33:35;;;;;;;9.93;3.70;;;13.20;95.80;;;;;;4972671;28;20371;-67
2022/01/03 11:36:02;;;;;;;7.72;3.00;;;13.20;95.80;;;;;;4962588;28;20093;-66
2022/01/03 11:38:30;;;;;;;9.07;3.45;;;13.20;95.70;;;;;;4972819;28;20027;-67
2022/01/03 11:41:01;;;;;;;10.63;4.30;;;13.20;95.60;;;;;;4962682;28;20030;-67
2022/01/03 11:43:28;;;;;;;11.85;3.60;;;13.20;95.50;;;;;;4966588;28;20113;-66
2022/01/03 11:45:54;;;;;;;11.82;4.53;;;13.20;95.40;;;;;;4964205;28;20587;-66
2022/01/03 11:48:20;;;;;;;9.63;3.53;;;13.20;95.30;;;;;;4973054;28;20466;-66
2022/01/03 11:50:45;;;;;;;9.73;3.30;;;13.20;95.30;;;;;;4966704;28;20038;-67
2022/01/03 11:53:12;;;;;;;10.38;3.35;;;13.20;95.30;;;;;;4965718;28;20062;-67
2022/01/03 11:55:40;;;;;;;12.93;3.83;;;13.20;95.30;;;;;;4966839;28;20043;-65
2022/01/03 12:06:03;;;;;;;6.95;3.50;;;13.30;95.20;;;;;;4967959;28;19914;-67
2022/01/03 12:08:33;;;;;;;11.35;3.20;;;13.20;95.10;;;;;;4974891;28;20027;-67
2022/01/03 12:11:01;;;;;;;13.60;4.05;;;13.20;95.00;;;;;;4972814;28;20434;-67
2022/01/03 12:13:50;;;;;;;8.82;3.40;;;13.20;94.90;;;;;;4968488;28;20062;-67
2022/01/03 12:16:16;;;;;;;11.35;4.35;;;13.20;94.90;;;;;;4973498;28;20441;-67
2022/01/03 12:18:59;;;;;;;7.43;3.05;;;13.20;94.80;;;;;;4971747;28;20113;-67
2022/01/03 12:21:46;;;;;;;13.85;3.90;;;13.30;94.80;;;;;;4972823;28;20386;-67
2022/01/03 12:24:27;;;;;;;11.35;3.65;;;13.20;94.60;;;;;;4966187;28;20034;-67
2022/01/03 12:27:11;;;;;;;11.68;3.72;;;13.20;94.70;;;;;;4953928;28;20387;-68
2022/01/03 12:29:57;;;;;;;8.38;3.33;;;13.20;94.60;;;;;;4963162;28;20101;-67
2022/01/03 12:32:24;;;;;;;9.32;3.50;;;13.20;94.50;;;;;;4966030;28;20368;-68
2022/01/03 12:35:08;;;;;;;9.70;3.58;;;13.20;94.50;;;;;;4966775;28;20430;-67
2022/01/03 12:37:38;;;;;;;12.15;3.90;;;13.30;94.30;;;;;;4973065;28;20446;-67
2022/01/03 12:40:03;;;;;;;9.25;3.53;;;13.20;94.30;;;;;;4971353;28;20066;-68
2022/01/03 12:42:53;;;;;;;11.95;3.75;;;13.30;94.30;;;;;;4973271;28;20112;-67
2022/01/03 12:45:40;;;;;;;8.65;3.22;;;13.30;94.30;;;;;;4969540;28;20023;-68
2022/01/03 12:48:12;;;;;;;9.27;3.13;;;13.20;94.60;;;;;;4972549;28;20360;-68
2022/01/03 12:50:50;;;;;;;8.60;2.83;;;13.20;94.20;;;;;;4971682;28;20035;-68
2022/01/03 12:53:31;;;;;;;11.48;4.20;;;13.30;94.10;;;;;;4973271;28;20363;-67
2022/01/03 12:56:14;;;;;;;9.52;2.97;;;13.30;94.00;;;;;;4968319;28;20038;-68
2022/01/03 12:58:44;;;;;;;11.55;3.45;;;13.30;94.00;;;;;;4953517;28;20434;-67
2022/01/03 13:01:14;;;;;;;9.05;3.22;;;13.20;93.80;;;;;;4953251;28;20055;-69
2022/01/03 13:03:39;;;;;;;9.13;3.40;;;13.30;93.90;;;;;;4964855;28;20481;-68
2022/01/03 13:06:17;;;;;;;9.90;3.55;;;13.30;93.70;;;;;;4967169;28;20082;-67
2022/01/03 13:08:59;;;;;;;9.80;3.58;;;13.30;93.60;;;;;;4953829;28;20497;-67
2022/01/03 13:11:36;;;;;;;13.48;3.25;;;13.30;93.60;;;;;;4971581;28;20026;-68
2022/01/03 13:14:01;;;;;;;9.85;3.90;;;13.30;93.50;;;;;;4970742;28;20054;-67
2022/01/03 13:16:30;;;;;;;10.32;4.30;;;13.30;93.40;;;;;;4972059;28;20050;-67